Terminal Aerodrome Forecast
Issued by NWS Austin/San Antonio, TX

Home | Current Version | Previous Version | Text Only | Print | Product List | Glossary On
Versions: 1 2 3 4 5 6 7 8 9 10 11 12 13 14 15 16 17 18 19 20 21 22 23 24 25 26 27 28
000
FTUS44 KEWX 220159 AAB
TAFSAT
TAF AMD
KSAT 220159Z 2202/2306 33020G30KT P6SM BKN150
     FM220500 32017G28KT P6SM SKC
     FM221400 32020G32KT P6SM SKC
     FM221600 32026G36KT P6SM SKC
     FM222300 32016G28KT P6SM SKC
     FM230100 33007KT P6SM SKC=

USA.gov is the U.S. government's official web portal to all federal, state and local government web resources and services.